sensor_id;sensor_type;location;lat;lon;timestamp;temperature;humidity
38480;DHT22;62333;51.980;5.934;2022-08-05T00:01:16;24.40;66.00
38480;DHT22;62333;51.980;5.934;2022-08-05T00:03:43;24.40;65.60
38480;DHT22;62333;51.980;5.934;2022-08-05T00:06:09;24.40;66.00
38480;DHT22;62333;51.980;5.934;2022-08-05T00:08:35;24.30;66.10
38480;DHT22;62333;51.980;5.934;2022-08-05T00:11:04;24.20;66.10
38480;DHT22;62333;51.980;5.934;2022-08-05T00:13:31;24.20;66.10
38480;DHT22;62333;51.980;5.934;2022-08-05T00:15:57;24.10;66.20
38480;DHT22;62333;51.980;5.934;2022-08-05T00:18:23;24.10;66.10
38480;DHT22;62333;51.980;5.934;2022-08-05T00:20:50;24.10;66.20
38480;DHT22;62333;51.980;5.934;2022-08-05T00:23:16;24.10;66.30
38480;DHT22;62333;51.980;5.934;2022-08-05T00:25:42;24.00;66.40
38480;DHT22;62333;51.980;5.934;2022-08-05T00:28:08;23.90;66.60
38480;DHT22;62333;51.980;5.934;2022-08-05T00:30:33;24.00;66.70
38480;DHT22;62333;51.980;5.934;2022-08-05T00:32:59;23.90;66.70
38480;DHT22;62333;51.980;5.934;2022-08-05T00:35:25;24.00;66.60
38480;DHT22;62333;51.980;5.934;2022-08-05T00:37:50;23.90;66.70
38480;DHT22;62333;51.980;5.934;2022-08-05T00:40:17;23.90;66.70
38480;DHT22;62333;51.980;5.934;2022-08-05T00:42:42;23.90;66.90
38480;DHT22;62333;51.980;5.934;2022-08-05T00:45:08;23.80;66.90
38480;DHT22;62333;51.980;5.934;2022-08-05T00:47:35;23.80;67.10
38480;DHT22;62333;51.980;5.934;2022-08-05T00:50:01;23.70;67.10
38480;DHT22;62333;51.980;5.934;2022-08-05T00:52:26;23.70;67.10
38480;DHT22;62333;51.980;5.934;2022-08-05T00:54:52;23.70;67.10
38480;DHT22;62333;51.980;5.934;2022-08-05T00:57:18;23.60;67.20
38480;DHT22;62333;51.980;5.934;2022-08-05T00:59:43;23.70;67.40
38480;DHT22;62333;51.980;5.934;2022-08-05T01:02:09;23.60;67.30
38480;DHT22;62333;51.980;5.934;2022-08-05T01:04:35;23.60;67.30
38480;DHT22;62333;51.980;5.934;2022-08-05T01:07:01;23.70;67.40
38480;DHT22;62333;51.980;5.934;2022-08-05T01:09:26;23.60;67.50
38480;DHT22;62333;51.980;5.934;2022-08-05T01:11:54;23.60;67.40
38480;DHT22;62333;51.980;5.934;2022-08-05T01:16:58;23.60;67.50
38480;DHT22;62333;51.980;5.934;2022-08-05T01:19:34;23.60;67.40
38480;DHT22;62333;51.980;5.934;2022-08-05T01:30:13;23.60;67.60
38480;DHT22;62333;51.980;5.934;2022-08-05T01:32:40;23.50;67.80
38480;DHT22;62333;51.980;5.934;2022-08-05T01:35:18;23.50;67.80
38480;DHT22;62333;51.980;5.934;2022-08-05T01:37:54;23.50;67.90
38480;DHT22;62333;51.980;5.934;2022-08-05T01:40:24;23.50;67.70
38480;DHT22;62333;51.980;5.934;2022-08-05T01:42:52;23.50;67.80
38480;DHT22;62333;51.980;5.934;2022-08-05T01:45:19;23.50;67.90
38480;DHT22;62333;51.980;5.934;2022-08-05T01:47:46;23.50;67.70
38480;DHT22;62333;51.980;5.934;2022-08-05T01:50:19;23.50;67.60
38480;DHT22;62333;51.980;5.934;2022-08-05T01:52:47;23.50;67.60
38480;DHT22;62333;51.980;5.934;2022-08-05T01:55:16;23.50;67.60
38480;DHT22;62333;51.980;5.934;2022-08-05T01:57:44;23.40;67.60
38480;DHT22;62333;51.980;5.934;2022-08-05T02:00:11;23.40;67.70
38480;DHT22;62333;51.980;5.934;2022-08-05T02:02:57;23.30;67.70
38480;DHT22;62333;51.980;5.934;2022-08-05T02:05:29;23.40;67.50
38480;DHT22;62333;51.980;5.934;2022-08-05T02:07:56;23.40;67.70
38480;DHT22;62333;51.980;5.934;2022-08-05T02:10:25;23.30;67.70
38480;DHT22;62333;51.980;5.934;2022-08-05T02:13:00;23.30;67.80
38480;DHT22;62333;51.980;5.934;2022-08-05T02:15:31;23.40;67.80
38480;DHT22;62333;51.980;5.934;2022-08-05T02:18:39;23.40;68.50
38480;DHT22;62333;51.980;5.934;2022-08-05T02:21:17;23.40;67.80
38480;DHT22;62333;51.980;5.934;2022-08-05T02:23:47;23.30;67.90
38480;DHT22;62333;51.980;5.934;2022-08-05T02:26:20;23.30;67.90
38480;DHT22;62333;51.980;5.934;2022-08-05T02:28:46;23.30;67.90
38480;DHT22;62333;51.980;5.934;2022-08-05T02:31:21;23.30;68.10
38480;DHT22;62333;51.980;5.934;2022-08-05T02:33:56;23.30;68.10
38480;DHT22;62333;51.980;5.934;2022-08-05T02:36:24;23.30;67.90
38480;DHT22;62333;51.980;5.934;2022-08-05T02:38:52;23.30;68.50
38480;DHT22;62333;51.980;5.934;2022-08-05T02:41:20;23.30;67.80
38480;DHT22;62333;51.980;5.934;2022-08-05T02:43:47;23.30;67.90
38480;DHT22;62333;51.980;5.934;2022-08-05T02:46:15;23.30;68.00
38480;DHT22;62333;51.980;5.934;2022-08-05T02:48:43;23.30;68.20
38480;DHT22;62333;51.980;5.934;2022-08-05T02:51:11;23.30;68.10
38480;DHT22;62333;51.980;5.934;2022-08-05T02:53:38;23.30;68.20
38480;DHT22;62333;51.980;5.934;2022-08-05T02:56:07;23.30;68.90
38480;DHT22;62333;51.980;5.934;2022-08-05T02:58:33;23.30;68.50
38480;DHT22;62333;51.980;5.934;2022-08-05T03:01:03;23.20;68.40
38480;DHT22;62333;51.980;5.934;2022-08-05T03:03:30;23.20;68.50
38480;DHT22;62333;51.980;5.934;2022-08-05T03:05:57;23.20;68.70
38480;DHT22;62333;51.980;5.934;2022-08-05T03:08:23;23.10;68.80
38480;DHT22;62333;51.980;5.934;2022-08-05T03:10:49;23.10;68.80
38480;DHT22;62333;51.980;5.934;2022-08-05T03:13:16;23.10;68.90
38480;DHT22;62333;51.980;5.934;2022-08-05T03:15:46;23.10;69.00
38480;DHT22;62333;51.980;5.934;2022-08-05T03:18:12;23.10;68.80
38480;DHT22;62333;51.980;5.934;2022-08-05T03:20:38;23.00;68.70
38480;DHT22;62333;51.980;5.934;2022-08-05T03:23:05;23.00;68.80
38480;DHT22;62333;51.980;5.934;2022-08-05T03:25:33;23.00;69.00
38480;DHT22;62333;51.980;5.934;2022-08-05T03:28:01;23.00;69.00
38480;DHT22;62333;51.980;5.934;2022-08-05T03:30:28;22.90;69.10
38480;DHT22;62333;51.980;5.934;2022-08-05T03:32:57;22.90;69.40
38480;DHT22;62333;51.980;5.934;2022-08-05T03:35:24;22.90;69.50
38480;DHT22;62333;51.980;5.934;2022-08-05T03:37:52;22.90;69.50
38480;DHT22;62333;51.980;5.934;2022-08-05T03:40:18;22.90;69.70
38480;DHT22;62333;51.980;5.934;2022-08-05T03:42:44;22.90;69.70
38480;DHT22;62333;51.980;5.934;2022-08-05T03:45:09;22.90;69.50
38480;DHT22;62333;51.980;5.934;2022-08-05T03:47:35;23.00;69.60
38480;DHT22;62333;51.980;5.934;2022-08-05T03:50:01;23.00;69.70
38480;DHT22;62333;51.980;5.934;2022-08-05T03:52:33;22.90;69.60
38480;DHT22;62333;51.980;5.934;2022-08-05T03:55:04;22.90;69.50
38480;DHT22;62333;51.980;5.934;2022-08-05T03:57:32;22.90;69.60
38480;DHT22;62333;51.980;5.934;2022-08-05T04:00:03;22.80;69.80
38480;DHT22;62333;51.980;5.934;2022-08-05T04:02:31;22.80;69.90
38480;DHT22;62333;51.980;5.934;2022-08-05T04:05:01;22.80;69.90
38480;DHT22;62333;51.980;5.934;2022-08-05T04:07:28;22.80;70.00
38480;DHT22;62333;51.980;5.934;2022-08-05T04:09:55;22.80;70.20
38480;DHT22;62333;51.980;5.934;2022-08-05T04:12:21;22.80;70.20
38480;DHT22;62333;51.980;5.934;2022-08-05T04:14:47;22.80;70.30
38480;DHT22;62333;51.980;5.934;2022-08-05T04:17:13;22.80;70.30
38480;DHT22;62333;51.980;5.934;2022-08-05T04:19:46;22.80;70.40
38480;DHT22;62333;51.980;5.934;2022-08-05T04:22:13;22.80;70.30
38480;DHT22;62333;51.980;5.934;2022-08-05T04:24:43;22.80;70.40
38480;DHT22;62333;51.980;5.934;2022-08-05T04:27:10;22.80;70.30
38480;DHT22;62333;51.980;5.934;2022-08-05T04:29:36;22.80;70.40
38480;DHT22;62333;51.980;5.934;2022-08-05T04:32:02;22.80;70.30
38480;DHT22;62333;51.980;5.934;2022-08-05T04:34:27;22.80;70.30
38480;DHT22;62333;51.980;5.934;2022-08-05T04:36:53;22.80;70.30
38480;DHT22;62333;51.980;5.934;2022-08-05T04:39:20;22.80;70.50
38480;DHT22;62333;51.980;5.934;2022-08-05T04:41:46;22.80;70.50
38480;DHT22;62333;51.980;5.934;2022-08-05T04:44:13;22.70;70.80
38480;DHT22;62333;51.980;5.934;2022-08-05T04:46:38;22.70;70.90
38480;DHT22;62333;51.980;5.934;2022-08-05T04:49:07;22.70;70.90
38480;DHT22;62333;51.980;5.934;2022-08-05T04:51:33;22.60;71.20
38480;DHT22;62333;51.980;5.934;2022-08-05T04:53:59;22.50;71.50
38480;DHT22;62333;51.980;5.934;2022-08-05T04:56:24;22.50;71.60
38480;DHT22;62333;51.980;5.934;2022-08-05T04:58:50;22.50;71.60
38480;DHT22;62333;51.980;5.934;2022-08-05T05:01:16;22.50;71.60
38480;DHT22;62333;51.980;5.934;2022-08-05T05:03:42;22.50;72.30
38480;DHT22;62333;51.980;5.934;2022-08-05T05:06:11;22.60;71.60
38480;DHT22;62333;51.980;5.934;2022-08-05T05:08:40;22.60;71.50
38480;DHT22;62333;51.980;5.934;2022-08-05T05:11:09;22.60;71.40
38480;DHT22;62333;51.980;5.934;2022-08-05T05:13:38;22.60;71.40
38480;DHT22;62333;51.980;5.934;2022-08-05T05:16:04;22.60;71.50
38480;DHT22;62333;51.980;5.934;2022-08-05T05:18:30;22.60;71.40
38480;DHT22;62333;51.980;5.934;2022-08-05T05:20:56;22.60;71.30
38480;DHT22;62333;51.980;5.934;2022-08-05T05:23:21;22.60;71.40
38480;DHT22;62333;51.980;5.934;2022-08-05T05:25:47;22.60;71.30
38480;DHT22;62333;51.980;5.934;2022-08-05T05:28:13;22.60;71.20
38480;DHT22;62333;51.980;5.934;2022-08-05T05:30:38;22.70;71.30
38480;DHT22;62333;51.980;5.934;2022-08-05T05:33:17;22.70;71.10
38480;DHT22;62333;51.980;5.934;2022-08-05T05:35:46;22.70;71.80
38480;DHT22;62333;51.980;5.934;2022-08-05T05:38:12;22.70;71.50
38480;DHT22;62333;51.980;5.934;2022-08-05T05:40:38;22.70;71.80
38480;DHT22;62333;51.980;5.934;2022-08-05T05:43:03;22.70;71.80
38480;DHT22;62333;51.980;5.934;2022-08-05T05:45:29;22.70;71.70
38480;DHT22;62333;51.980;5.934;2022-08-05T05:47:57;22.80;71.20
38480;DHT22;62333;51.980;5.934;2022-08-05T05:50:23;22.80;70.70
38480;DHT22;62333;51.980;5.934;2022-08-05T05:52:49;22.80;70.90
38480;DHT22;62333;51.980;5.934;2022-08-05T05:55:15;22.70;70.80
38480;DHT22;62333;51.980;5.934;2022-08-05T05:57:43;22.70;70.70
38480;DHT22;62333;51.980;5.934;2022-08-05T06:00:11;22.70;70.80
38480;DHT22;62333;51.980;5.934;2022-08-05T06:02:38;22.70;70.90
38480;DHT22;62333;51.980;5.934;2022-08-05T06:05:06;22.70;71.00
38480;DHT22;62333;51.980;5.934;2022-08-05T06:07:32;22.70;71.00
38480;DHT22;62333;51.980;5.934;2022-08-05T06:09:57;22.70;71.10
38480;DHT22;62333;51.980;5.934;2022-08-05T06:12:23;22.70;71.30
38480;DHT22;62333;51.980;5.934;2022-08-05T06:14:49;22.70;71.20
38480;DHT22;62333;51.980;5.934;2022-08-05T06:17:14;22.70;71.20
38480;DHT22;62333;51.980;5.934;2022-08-05T06:19:40;22.70;71.00
38480;DHT22;62333;51.980;5.934;2022-08-05T06:22:06;22.70;70.80
38480;DHT22;62333;51.980;5.934;2022-08-05T06:24:33;22.70;71.00
38480;DHT22;62333;51.980;5.934;2022-08-05T06:26:59;22.70;71.10
38480;DHT22;62333;51.980;5.934;2022-08-05T06:29:25;22.70;71.20
38480;DHT22;62333;51.980;5.934;2022-08-05T06:31:51;22.70;71.40
38480;DHT22;62333;51.980;5.934;2022-08-05T06:34:17;22.80;71.50
38480;DHT22;62333;51.980;5.934;2022-08-05T06:36:43;22.80;71.50
38480;DHT22;62333;51.980;5.934;2022-08-05T06:39:09;22.80;71.40
38480;DHT22;62333;51.980;5.934;2022-08-05T06:41:35;22.80;71.10
38480;DHT22;62333;51.980;5.934;2022-08-05T06:44:01;22.90;71.00
38480;DHT22;62333;51.980;5.934;2022-08-05T06:46:26;22.90;70.60
38480;DHT22;62333;51.980;5.934;2022-08-05T06:48:52;23.00;70.30
38480;DHT22;62333;51.980;5.934;2022-08-05T06:51:18;23.00;70.20
38480;DHT22;62333;51.980;5.934;2022-08-05T06:53:43;22.90;69.90
38480;DHT22;62333;51.980;5.934;2022-08-05T06:56:09;23.00;69.60
38480;DHT22;62333;51.980;5.934;2022-08-05T06:58:35;23.00;69.70
38480;DHT22;62333;51.980;5.934;2022-08-05T07:01:05;23.10;69.20
38480;DHT22;62333;51.980;5.934;2022-08-05T07:03:31;23.00;69.40
38480;DHT22;62333;51.980;5.934;2022-08-05T07:05:57;23.10;68.80
38480;DHT22;62333;51.980;5.934;2022-08-05T07:08:23;23.00;68.80
38480;DHT22;62333;51.980;5.934;2022-08-05T07:10:53;23.00;68.40
38480;DHT22;62333;51.980;5.934;2022-08-05T07:13:22;23.10;68.70
38480;DHT22;62333;51.980;5.934;2022-08-05T07:16:06;23.00;68.30
38480;DHT22;62333;51.980;5.934;2022-08-05T07:18:50;23.00;68.60
38480;DHT22;62333;51.980;5.934;2022-08-05T07:21:15;22.90;68.70
38480;DHT22;62333;51.980;5.934;2022-08-05T07:23:41;23.00;68.70
38480;DHT22;62333;51.980;5.934;2022-08-05T07:26:07;23.00;68.50
38480;DHT22;62333;51.980;5.934;2022-08-05T07:28:32;23.00;67.90
38480;DHT22;62333;51.980;5.934;2022-08-05T07:30:58;23.10;67.90
38480;DHT22;62333;51.980;5.934;2022-08-05T07:33:24;23.10;67.90
38480;DHT22;62333;51.980;5.934;2022-08-05T07:35:49;23.20;67.70
38480;DHT22;62333;51.980;5.934;2022-08-05T07:38:16;23.20;67.70
38480;DHT22;62333;51.980;5.934;2022-08-05T07:40:43;23.20;67.30
38480;DHT22;62333;51.980;5.934;2022-08-05T07:43:10;23.30;67.00
38480;DHT22;62333;51.980;5.934;2022-08-05T07:45:35;23.30;67.30
38480;DHT22;62333;51.980;5.934;2022-08-05T07:48:01;23.30;67.30
38480;DHT22;62333;51.980;5.934;2022-08-05T07:50:27;23.40;66.90
38480;DHT22;62333;51.980;5.934;2022-08-05T07:52:52;23.40;66.40
38480;DHT22;62333;51.980;5.934;2022-08-05T07:55:18;23.40;65.90
38480;DHT22;62333;51.980;5.934;2022-08-05T07:57:44;23.40;65.70
38480;DHT22;62333;51.980;5.934;2022-08-05T08:00:10;23.50;65.80
38480;DHT22;62333;51.980;5.934;2022-08-05T08:02:38;23.70;66.20
38480;DHT22;62333;51.980;5.934;2022-08-05T08:05:04;24.00;65.10
38480;DHT22;62333;51.980;5.934;2022-08-05T08:07:30;24.10;64.50
38480;DHT22;62333;51.980;5.934;2022-08-05T08:09:56;24.30;62.90
38480;DHT22;62333;51.980;5.934;2022-08-05T08:12:22;24.40;62.20
38480;DHT22;62333;51.980;5.934;2022-08-05T08:14:48;24.50;62.40
38480;DHT22;62333;51.980;5.934;2022-08-05T08:17:14;24.60;61.80
38480;DHT22;62333;51.980;5.934;2022-08-05T08:19:40;24.60;62.00
38480;DHT22;62333;51.980;5.934;2022-08-05T08:22:07;24.70;59.80
38480;DHT22;62333;51.980;5.934;2022-08-05T08:24:34;24.70;58.20
38480;DHT22;62333;51.980;5.934;2022-08-05T08:27:02;24.70;58.10
38480;DHT22;62333;51.980;5.934;2022-08-05T08:29:28;24.80;58.90
38480;DHT22;62333;51.980;5.934;2022-08-05T08:31:54;25.00;59.20
38480;DHT22;62333;51.980;5.934;2022-08-05T08:34:22;25.20;58.00
38480;DHT22;62333;51.980;5.934;2022-08-05T08:36:48;25.30;58.00
38480;DHT22;62333;51.980;5.934;2022-08-05T08:39:15;25.50;58.50
38480;DHT22;62333;51.980;5.934;2022-08-05T08:41:48;25.60;58.00
38480;DHT22;62333;51.980;5.934;2022-08-05T08:44:16;25.70;56.80
38480;DHT22;62333;51.980;5.934;2022-08-05T08:46:43;25.80;57.00
38480;DHT22;62333;51.980;5.934;2022-08-05T08:49:13;25.80;57.20
38480;DHT22;62333;51.980;5.934;2022-08-05T08:51:40;25.90;56.50
38480;DHT22;62333;51.980;5.934;2022-08-05T08:54:05;25.90;56.60
38480;DHT22;62333;51.980;5.934;2022-08-05T08:56:32;25.80;55.70
38480;DHT22;62333;51.980;5.934;2022-08-05T08:58:59;25.80;55.60
38480;DHT22;62333;51.980;5.934;2022-08-05T09:01:25;25.60;55.60
38480;DHT22;62333;51.980;5.934;2022-08-05T09:03:52;25.60;55.90
38480;DHT22;62333;51.980;5.934;2022-08-05T09:06:19;25.50;55.80
38480;DHT22;62333;51.980;5.934;2022-08-05T09:08:45;25.50;56.00
38480;DHT22;62333;51.980;5.934;2022-08-05T09:11:11;25.40;56.00
38480;DHT22;62333;51.980;5.934;2022-08-05T09:13:37;25.30;56.00
38480;DHT22;62333;51.980;5.934;2022-08-05T09:16:04;25.30;55.80
38480;DHT22;62333;51.980;5.934;2022-08-05T09:18:34;25.30;55.50
38480;DHT22;62333;51.980;5.934;2022-08-05T09:21:01;25.20;54.50
38480;DHT22;62333;51.980;5.934;2022-08-05T09:23:26;25.20;54.40
38480;DHT22;62333;51.980;5.934;2022-08-05T09:26:12;25.20;54.70
38480;DHT22;62333;51.980;5.934;2022-08-05T09:28:40;25.40;54.20
38480;DHT22;62333;51.980;5.934;2022-08-05T09:31:10;25.40;54.30
38480;DHT22;62333;51.980;5.934;2022-08-05T09:33:50;25.40;54.40
38480;DHT22;62333;51.980;5.934;2022-08-05T09:36:17;25.50;54.20
38480;DHT22;62333;51.980;5.934;2022-08-05T09:38:57;25.40;54.50
38480;DHT22;62333;51.980;5.934;2022-08-05T09:41:24;25.50;54.00
38480;DHT22;62333;51.980;5.934;2022-08-05T09:43:50;25.40;54.00
38480;DHT22;62333;51.980;5.934;2022-08-05T09:48:58;25.80;53.70
38480;DHT22;62333;51.980;5.934;2022-08-05T09:51:37;26.10;52.50
38480;DHT22;62333;51.980;5.934;2022-08-05T09:54:05;26.40;49.80
38480;DHT22;62333;51.980;5.934;2022-08-05T09:56:35;26.60;48.70
38480;DHT22;62333;51.980;5.934;2022-08-05T09:59:11;26.70;48.30
38480;DHT22;62333;51.980;5.934;2022-08-05T10:01:41;26.90;48.40
38480;DHT22;62333;51.980;5.934;2022-08-05T10:04:11;27.20;47.70
38480;DHT22;62333;51.980;5.934;2022-08-05T10:06:56;27.50;46.70
38480;DHT22;62333;51.980;5.934;2022-08-05T10:09:22;27.90;45.80
38480;DHT22;62333;51.980;5.934;2022-08-05T10:11:49;28.10;45.50
38480;DHT22;62333;51.980;5.934;2022-08-05T10:14:27;28.30;44.50
38480;DHT22;62333;51.980;5.934;2022-08-05T10:16:54;28.50;42.70
38480;DHT22;62333;51.980;5.934;2022-08-05T10:19:22;28.60;41.10
38480;DHT22;62333;51.980;5.934;2022-08-05T10:21:48;28.80;40.50
38480;DHT22;62333;51.980;5.934;2022-08-05T10:24:17;28.80;40.20
38480;DHT22;62333;51.980;5.934;2022-08-05T10:26:44;28.80;38.70
38480;DHT22;62333;51.980;5.934;2022-08-05T10:29:10;28.70;39.50
38480;DHT22;62333;51.980;5.934;2022-08-05T10:31:37;28.60;40.40
38480;DHT22;62333;51.980;5.934;2022-08-05T10:34:06;28.40;40.70
38480;DHT22;62333;51.980;5.934;2022-08-05T10:36:35;28.30;40.50
38480;DHT22;62333;51.980;5.934;2022-08-05T10:39:11;28.20;39.40
38480;DHT22;62333;51.980;5.934;2022-08-05T10:42:15;28.00;40.00
38480;DHT22;62333;51.980;5.934;2022-08-05T10:44:45;28.00;40.60
38480;DHT22;62333;51.980;5.934;2022-08-05T10:47:13;27.90;40.10
38480;DHT22;62333;51.980;5.934;2022-08-05T10:50:07;28.00;40.70
38480;DHT22;62333;51.980;5.934;2022-08-05T10:52:50;28.30;40.80
38480;DHT22;62333;51.980;5.934;2022-08-05T10:55:22;28.40;39.30
38480;DHT22;62333;51.980;5.934;2022-08-05T10:58:06;28.50;38.30
38480;DHT22;62333;51.980;5.934;2022-08-05T11:00:32;28.60;38.50
38480;DHT22;62333;51.980;5.934;2022-08-05T11:05:33;28.90;37.50
38480;DHT22;62333;51.980;5.934;2022-08-05T11:08:01;28.90;37.70
38480;DHT22;62333;51.980;5.934;2022-08-05T11:10:27;29.00;37.60
38480;DHT22;62333;51.980;5.934;2022-08-05T11:12:54;29.10;37.40
38480;DHT22;62333;51.980;5.934;2022-08-05T11:15:21;29.10;37.40
38480;DHT22;62333;51.980;5.934;2022-08-05T11:17:51;29.20;36.90
38480;DHT22;62333;51.980;5.934;2022-08-05T11:20:45;29.20;37.00
38480;DHT22;62333;51.980;5.934;2022-08-05T11:28:52;29.10;36.40
38480;DHT22;62333;51.980;5.934;2022-08-05T11:31:20;29.10;34.70
38480;DHT22;62333;51.980;5.934;2022-08-05T11:36:15;28.90;33.70
38480;DHT22;62333;51.980;5.934;2022-08-05T11:43:34;28.60;35.00
38480;DHT22;62333;51.980;5.934;2022-08-05T11:46:00;28.60;35.50
38480;DHT22;62333;51.980;5.934;2022-08-05T11:48:26;28.60;35.30
38480;DHT22;62333;51.980;5.934;2022-08-05T11:50:53;28.60;33.90
38480;DHT22;62333;51.980;5.934;2022-08-05T11:53:19;28.50;33.70
38480;DHT22;62333;51.980;5.934;2022-08-05T11:55:59;28.40;33.80
38480;DHT22;62333;51.980;5.934;2022-08-05T11:58:38;28.40;33.60
38480;DHT22;62333;51.980;5.934;2022-08-05T12:01:06;28.30;33.80
38480;DHT22;62333;51.980;5.934;2022-08-05T12:03:43;28.30;34.20
38480;DHT22;62333;51.980;5.934;2022-08-05T12:06:11;28.40;34.60
38480;DHT22;62333;51.980;5.934;2022-08-05T12:08:49;28.40;35.30
38480;DHT22;62333;51.980;5.934;2022-08-05T12:11:22;28.50;34.80
38480;DHT22;62333;51.980;5.934;2022-08-05T12:14:03;28.60;35.20
38480;DHT22;62333;51.980;5.934;2022-08-05T12:16:34;28.90;35.40
38480;DHT22;62333;51.980;5.934;2022-08-05T12:19:00;29.10;34.40
38480;DHT22;62333;51.980;5.934;2022-08-05T12:21:42;29.10;34.20
38480;DHT22;62333;51.980;5.934;2022-08-05T12:24:10;29.20;34.40
38480;DHT22;62333;51.980;5.934;2022-08-05T12:26:52;29.20;33.90
38480;DHT22;62333;51.980;5.934;2022-08-05T12:29:19;29.20;33.70
38480;DHT22;62333;51.980;5.934;2022-08-05T12:31:50;29.10;32.30
38480;DHT22;62333;51.980;5.934;2022-08-05T12:34:17;29.00;32.20
38480;DHT22;62333;51.980;5.934;2022-08-05T12:36:44;28.90;32.20
38480;DHT22;62333;51.980;5.934;2022-08-05T12:39:11;28.80;31.90
38480;DHT22;62333;51.980;5.934;2022-08-05T12:41:38;28.60;32.10
38480;DHT22;62333;51.980;5.934;2022-08-05T12:44:09;28.60;32.20
38480;DHT22;62333;51.980;5.934;2022-08-05T12:46:37;28.60;32.30
38480;DHT22;62333;51.980;5.934;2022-08-05T12:49:11;28.60;32.30
38480;DHT22;62333;51.980;5.934;2022-08-05T12:51:57;28.60;32.50
38480;DHT22;62333;51.980;5.934;2022-08-05T12:54:24;28.90;32.70
38480;DHT22;62333;51.980;5.934;2022-08-05T12:57:02;28.90;32.20
38480;DHT22;62333;51.980;5.934;2022-08-05T12:59:32;29.00;32.20
38480;DHT22;62333;51.980;5.934;2022-08-05T13:02:01;29.00;32.10
38480;DHT22;62333;51.980;5.934;2022-08-05T13:04:32;29.00;32.30
38480;DHT22;62333;51.980;5.934;2022-08-05T13:06:59;29.00;32.30
38480;DHT22;62333;51.980;5.934;2022-08-05T13:09:27;28.90;32.50
38480;DHT22;62333;51.980;5.934;2022-08-05T13:12:07;28.90;31.80
38480;DHT22;62333;51.980;5.934;2022-08-05T13:14:41;29.00;32.30
38480;DHT22;62333;51.980;5.934;2022-08-05T13:17:20;29.10;32.40
38480;DHT22;62333;51.980;5.934;2022-08-05T13:20:11;29.20;32.60
38480;DHT22;62333;51.980;5.934;2022-08-05T13:22:41;29.40;32.90
38480;DHT22;62333;51.980;5.934;2022-08-05T13:25:11;29.30;32.60
38480;DHT22;62333;51.980;5.934;2022-08-05T13:27:48;29.50;33.00
38480;DHT22;62333;51.980;5.934;2022-08-05T13:30:16;29.90;32.50
38480;DHT22;62333;51.980;5.934;2022-08-05T13:32:42;30.20;32.00
38480;DHT22;62333;51.980;5.934;2022-08-05T13:35:15;30.60;31.60
38480;DHT22;62333;51.980;5.934;2022-08-05T13:37:41;31.10;31.20
38480;DHT22;62333;51.980;5.934;2022-08-05T13:40:08;31.10;30.10
38480;DHT22;62333;51.980;5.934;2022-08-05T13:42:34;31.10;30.60
38480;DHT22;62333;51.980;5.934;2022-08-05T13:45:00;30.90;30.80
38480;DHT22;62333;51.980;5.934;2022-08-05T13:47:26;31.10;30.50
38480;DHT22;62333;51.980;5.934;2022-08-05T13:49:52;32.00;30.00
38480;DHT22;62333;51.980;5.934;2022-08-05T13:52:20;32.90;29.40
38480;DHT22;62333;51.980;5.934;2022-08-05T13:54:46;33.60;29.00
38480;DHT22;62333;51.980;5.934;2022-08-05T13:57:12;34.30;29.30
38480;DHT22;62333;51.980;5.934;2022-08-05T13:59:39;34.70;29.30
38480;DHT22;62333;51.980;5.934;2022-08-05T14:02:07;34.90;28.60
38480;DHT22;62333;51.980;5.934;2022-08-05T14:04:35;35.00;28.40
38480;DHT22;62333;51.980;5.934;2022-08-05T14:07:25;34.90;28.30
38480;DHT22;62333;51.980;5.934;2022-08-05T14:09:54;34.80;28.30
38480;DHT22;62333;51.980;5.934;2022-08-05T14:12:20;34.50;28.50
38480;DHT22;62333;51.980;5.934;2022-08-05T14:14:45;34.20;28.50
38480;DHT22;62333;51.980;5.934;2022-08-05T14:17:11;33.90;28.60
38480;DHT22;62333;51.980;5.934;2022-08-05T14:19:39;33.40;28.70
38480;DHT22;62333;51.980;5.934;2022-08-05T14:22:04;32.70;28.80
38480;DHT22;62333;51.980;5.934;2022-08-05T14:24:30;32.10;29.50
38480;DHT22;62333;51.980;5.934;2022-08-05T14:26:56;31.50;29.90
38480;DHT22;62333;51.980;5.934;2022-08-05T14:29:21;31.00;30.50
38480;DHT22;62333;51.980;5.934;2022-08-05T14:31:47;30.50;31.10
38480;DHT22;62333;51.980;5.934;2022-08-05T14:34:13;30.00;31.80
38480;DHT22;62333;51.980;5.934;2022-08-05T14:36:38;29.70;32.40
38480;DHT22;62333;51.980;5.934;2022-08-05T14:39:04;29.50;32.80
38480;DHT22;62333;51.980;5.934;2022-08-05T14:41:31;29.20;33.00
38480;DHT22;62333;51.980;5.934;2022-08-05T14:43:57;29.00;32.90
38480;DHT22;62333;51.980;5.934;2022-08-05T14:46:23;28.90;33.50
38480;DHT22;62333;51.980;5.934;2022-08-05T14:48:49;28.60;33.80
38480;DHT22;62333;51.980;5.934;2022-08-05T14:51:15;28.40;34.10
38480;DHT22;62333;51.980;5.934;2022-08-05T14:53:41;28.20;34.30
38480;DHT22;62333;51.980;5.934;2022-08-05T14:56:07;28.10;34.00
38480;DHT22;62333;51.980;5.934;2022-08-05T14:58:33;27.90;34.10
38480;DHT22;62333;51.980;5.934;2022-08-05T15:00:58;27.70;34.40
38480;DHT22;62333;51.980;5.934;2022-08-05T15:03:25;27.60;34.80
38480;DHT22;62333;51.980;5.934;2022-08-05T15:05:50;27.50;35.10
38480;DHT22;62333;51.980;5.934;2022-08-05T15:08:16;27.30;36.20
38480;DHT22;62333;51.980;5.934;2022-08-05T15:10:42;27.20;35.90
38480;DHT22;62333;51.980;5.934;2022-08-05T15:13:08;27.10;36.10
38480;DHT22;62333;51.980;5.934;2022-08-05T15:15:33;27.10;36.20
38480;DHT22;62333;51.980;5.934;2022-08-05T15:17:59;27.20;36.40
38480;DHT22;62333;51.980;5.934;2022-08-05T15:20:25;27.20;36.40
38480;DHT22;62333;51.980;5.934;2022-08-05T15:22:51;27.30;36.70
38480;DHT22;62333;51.980;5.934;2022-08-05T15:25:17;27.40;36.60
38480;DHT22;62333;51.980;5.934;2022-08-05T15:27:42;27.40;36.50
38480;DHT22;62333;51.980;5.934;2022-08-05T15:30:09;27.40;36.80
38480;DHT22;62333;51.980;5.934;2022-08-05T15:32:35;27.30;36.50
38480;DHT22;62333;51.980;5.934;2022-08-05T15:35:02;27.20;36.70
38480;DHT22;62333;51.980;5.934;2022-08-05T15:37:28;27.10;36.90
38480;DHT22;62333;51.980;5.934;2022-08-05T15:39:53;27.10;37.10
38480;DHT22;62333;51.980;5.934;2022-08-05T15:42:22;27.10;37.30
38480;DHT22;62333;51.980;5.934;2022-08-05T15:44:48;27.10;37.20
38480;DHT22;62333;51.980;5.934;2022-08-05T15:47:15;27.00;36.90
38480;DHT22;62333;51.980;5.934;2022-08-05T15:49:41;27.00;37.10
38480;DHT22;62333;51.980;5.934;2022-08-05T15:52:07;26.90;37.10
38480;DHT22;62333;51.980;5.934;2022-08-05T15:54:32;26.80;37.10
38480;DHT22;62333;51.980;5.934;2022-08-05T15:56:59;26.80;37.10
38480;DHT22;62333;51.980;5.934;2022-08-05T15:59:24;26.80;37.20
38480;DHT22;62333;51.980;5.934;2022-08-05T16:01:50;26.80;37.10
38480;DHT22;62333;51.980;5.934;2022-08-05T16:04:16;26.70;37.10
38480;DHT22;62333;51.980;5.934;2022-08-05T16:06:42;26.70;37.10